Flight Track Log - Related Links

Times and Time Zones

All times are in EDT time to prevent confusion due to time zone crossing. See the JIA4696 flight status page for this flight to view local times or setup timezone preferences in your user account.

Time Position Orientation Groundspeed Altitude Reporting Facility
EDT Latitude Longitude Course Direction KTS MPH feet Rate Location/Type
Mon 07:36:22 PM 39.8978 -84.2417 79° East 166 191 1,400  Level Indianapolis Center
Mon 07:36:40 PM 39.8881 -84.2536 223° Southwest 159 183 2,100 2,328 Climbing Indianapolis Center
Mon 07:37:29 PM 39.8500 -84.2686 197° South 253 291 4,000 2,324 Climbing Indianapolis Center
Mon 07:38:31 PM 39.8231 -84.2050 119° Southeast 237 273 6,400 2,488 Climbing Indianapolis Center
Mon 07:39:00 PM 39.9434 -83.8635 79° East  Level FlightAware Approximate
Mon 07:39:32 PM 39.8447 -84.1039 74° East 281 323 9,100  Level Indianapolis Center
Mon 07:40:00 PM 39.9603 -83.7451 79° East  Level FlightAware Approximate
Mon 07:40:34 PM 39.8672 -83.9961 75° East 302 348 11,600  Level Indianapolis Center
Mon 07:41:00 PM 39.9780 -83.6268 79° East  Level FlightAware Approximate
Mon 07:42:31 PM 39.9133 -83.7672 75° East 341 392 15,400  Level Cleveland Center
Mon 07:43:33 PM 39.9400 -83.6422 74° East 355 409 17,200 1,569 Climbing Cleveland Center
Mon 07:44:41 PM 39.9692 -83.5000 75° East 363 418 18,800 1,246 Climbing Indianapolis Center
Mon 07:45:43 PM 39.9972 -83.3619 75° East 382 440 19,900 1,065 Climbing Indianapolis Center
Mon 07:46:45 PM 40.0253 -83.2206 75° East 397 457 21,000 1,220 Climbing Indianapolis Center
Mon 07:47:46 PM 40.0600 -83.0464 75° East 408 470 22,400 1,220 Climbing Indianapolis Center
Mon 07:48:48 PM 40.0897 -82.8986 75° East 415 478 23,500 1,065 Climbing Indianapolis Center
Mon 07:49:50 PM 40.1183 -82.7500 76° East 418 481 24,600 1,065 Climbing Indianapolis Center
Mon 07:50:52 PM 40.1467 -82.6017 76° East 420 483 25,700 1,073 Climbing Indianapolis Center
Mon 07:51:53 PM 40.1108 -82.4553 108° East 431 496 26,800 976 Climbing Indianapolis Center
Mon 07:52:55 PM 40.0686 -82.3114 111° Southeast 425 489 27,700 774 Climbing Indianapolis Center
Mon 07:53:57 PM 40.0256 -82.1667 111° Southeast 425 489 28,400 732 Climbing Indianapolis Center
Mon 07:54:58 PM 39.9722 -81.9897 111° Southeast 431 496 29,200 683 Climbing Indianapolis Center
Mon 07:56:00 PM 39.9269 -81.8408 112° Southeast 439 505 29,800 581 Climbing Indianapolis Center
Mon 07:57:02 PM 39.8819 -81.6906 111° Southeast 442 509 30,400 585 Climbing Indianapolis Center
Mon 07:58:03 PM 39.8364 -81.5411 112° Southeast 443 510 31,000 293 Climbing Indianapolis Center
Mon 07:59:05 PM 39.7858 -81.3792 112° Southeast 443 510 31,000  Level Indianapolis Center
Mon 08:00:07 PM 39.7406 -81.2300 112° Southeast 443 510 31,000  Level Indianapolis Center
Mon 08:01:08 PM 39.6956 -81.0850 112° Southeast 435 501 31,000  Level Indianapolis Center
Mon 08:02:10 PM 39.6508 -80.9419 112° Southeast 433 498 31,000  Level Indianapolis Center
Mon 08:03:11 PM 39.6067 -80.8011 112° Southeast 425 489 31,000  Level Indianapolis Center
Mon 08:04:13 PM 39.5622 -80.6594 112° Southeast 424 488 31,000  Level Indianapolis Center
Mon 08:05:15 PM 39.5186 -80.5219 112° Southeast 417 480 31,000  Level Indianapolis Center
Mon 08:07:42 PM 39.4136 -80.1950 112° Southeast 410 472 31,000  Level Indianapolis Center
Mon 08:08:17 PM 39.3819 -80.1014 114° Southeast 408 470 31,000  Level Cleveland Center
Mon 08:09:19 PM 39.3383 -79.9653 112° Southeast 409 471 31,000  Level Cleveland Center
Mon 08:10:21 PM 39.2961 -79.8317 112° Southeast 404 465 31,000 -97 Level Cleveland Center
Mon 08:11:23 PM 39.2817 -79.6875 97° East 401 461 30,800 -532 Descending Cleveland Center
Mon 08:12:25 PM 39.2692 -79.5389 96° East 411 473 29,900 -968 Descending Cleveland Center
Mon 08:13:27 PM 39.2561 -79.3792 96° East 440 506 28,800 -1,258 Descending Cleveland Center
Mon 08:14:29 PM 39.2403 -79.1853 96° East 457 526 27,300 -1,403 Descending Cleveland Center
Mon 08:15:31 PM 39.2267 -79.0200 96° East 463 533 25,900 -1,500 Descending Cleveland Center
Mon 08:16:33 PM 39.2128 -78.8622 96° East 448 516 24,200 -1,694 Descending Cleveland Center
Mon 08:17:35 PM 39.1975 -78.7131 97° East 424 488 22,400 -1,887 Descending Cleveland Center
Mon 08:18:37 PM 39.1847 -78.5661 96° East 415 478 20,300 -2,371 Descending Cleveland Center
Mon 08:19:39 PM 39.1669 -78.3967 98° East 401 461 17,500 -1,984 Descending Cleveland Center
Mon 08:20:41 PM 39.1386 -78.2669 106° East 368 423 16,200 -1,209 Descending Cleveland Center
Mon 08:21:53 PM 39.1000 -78.1000 107° East 379 436 14,800 -1,286 Descending Potomac TRACON
Mon 08:22:47 PM 39.0667 -78.0000 113° Southeast 362 417 13,500 -1,421 Descending Potomac TRACON
Mon 08:23:47 PM 39.0333 -77.8667 108° East 357 411 12,100 -1,350 Descending Potomac TRACON
Mon 08:24:47 PM 39.0167 -77.7500 100° East 348 400 10,800 -1,240 Descending Potomac TRACON
Mon 08:25:48 PM 38.9833 -77.6500 113° Southeast 309 356 9,600 -1,048 Descending Potomac TRACON
Mon 08:26:53 PM 38.9500 -77.5500 113° Southeast 292 336 8,600 -816 Descending Potomac TRACON
Mon 08:27:53 PM 38.9167 -77.4500 113° Southeast 262 302 7,900 -950 Descending Potomac TRACON
Mon 08:28:53 PM 38.8833 -77.3833 123° Southeast 244 281 6,700 -991 Descending Potomac TRACON
Mon 08:29:48 PM 38.8500 -77.3167 123° Southeast 237 273 6,000 -365 Descending Potomac TRACON
Mon 08:30:48 PM 38.8167 -77.2333 117° Southeast 229 264 6,000 -50 Level Potomac TRACON
Mon 08:31:48 PM 38.7833 -77.1833 131° Southeast 200 230 5,900 -571 Descending Potomac TRACON
Mon 08:32:54 PM 38.7500 -77.1167 123° Southeast 211 243 4,800 -950 Descending Potomac TRACON
Mon 08:33:48 PM 38.7000 -77.1167 180° South 214 246 4,000 -421 Descending Potomac TRACON
Mon 08:34:48 PM 38.6500 -77.1000 165° South 202 232 4,000  Level Potomac TRACON
Mon 08:35:54 PM 38.5833 -77.1000 180° South 208 239 4,000 -238 Level Potomac TRACON
Mon 08:36:54 PM 38.5833 -77.0333 90° East 180 207 3,500 -500 Descending Potomac TRACON
Mon 08:37:54 PM 38.6167 -77.0167 21° North 154 177 3,000 -350 Descending Potomac TRACON
Mon 08:38:54 PM 38.6667 -77.0167 360° North 158 182 2,800 -350 Descending Potomac TRACON
Mon 08:39:54 PM 38.7000 -77.0167 360° North 149 171 2,300 -450 Descending Potomac TRACON
Mon 08:40:54 PM 38.7500 -77.0333 345° North 132 152 1,900 -474 Descending Potomac TRACON
Mon 08:41:48 PM 38.7667 -77.0333 360° North 116 133 1,400 -600 Descending Potomac TRACON
Mon 08:42:54 PM 38.8167 -77.0333 360° North 125 144 700 -636 Descending Potomac TRACON

Login

Don't have an account? Register now (free) for customized features, flight alerts, and more!